createdAt,value
2017-12-16T00:01:41.888Z,7.43
2017-12-16T00:04:09.326Z,8.05
2017-12-16T00:06:36.763Z,8.00
2017-12-16T00:09:04.998Z,7.40
2017-12-16T00:11:32.441Z,8.83
2017-12-16T00:13:59.886Z,8.27
2017-12-16T00:16:27.342Z,9.33
2017-12-16T00:18:54.790Z,10.02
2017-12-16T00:21:22.246Z,10.50
2017-12-16T00:23:49.677Z,8.40
2017-12-16T00:26:17.921Z,8.80
2017-12-16T00:28:45.362Z,9.47
2017-12-16T00:31:12.795Z,8.50
2017-12-16T00:33:40.242Z,9.13
2017-12-16T00:36:07.687Z,8.73
2017-12-16T00:38:35.907Z,8.60
2017-12-16T00:41:03.351Z,9.70
2017-12-16T00:43:30.840Z,8.77
2017-12-16T00:45:58.299Z,7.67
2017-12-16T00:48:25.747Z,7.90
2017-12-16T00:50:53.191Z,7.47
2017-12-16T00:53:20.633Z,8.17
2017-12-16T00:58:51.747Z,7.77
2017-12-16T01:01:19.192Z,7.45
2017-12-16T01:03:47.388Z,7.83
2017-12-16T01:06:14.812Z,8.27
2017-12-16T01:08:43.022Z,7.10
2017-12-16T01:11:10.461Z,8.20
2017-12-16T01:13:37.910Z,7.47
2017-12-16T01:16:06.112Z,7.57
2017-12-16T01:18:33.582Z,7.00
2017-12-16T01:21:01.013Z,7.37
2017-12-16T01:23:28.445Z,7.93
2017-12-16T01:25:56.668Z,7.33
2017-12-16T01:28:24.090Z,8.40
2017-12-16T01:30:52.299Z,7.10
2017-12-16T01:36:26.557Z,8.13
2017-12-16T01:38:54.002Z,7.50
2017-12-16T01:41:21.450Z,7.73
2017-12-16T01:43:48.900Z,7.43
2017-12-16T01:46:16.355Z,8.17
2017-12-16T01:48:43.786Z,7.87
2017-12-16T01:51:11.234Z,8.82
2017-12-16T01:53:39.442Z,8.80
2017-12-16T01:56:06.913Z,8.00
2017-12-16T01:58:34.363Z,9.10
2017-12-16T02:01:01.793Z,8.80
2017-12-16T02:03:29.241Z,8.57
2017-12-16T02:05:57.450Z,9.60
2017-12-16T02:08:24.890Z,9.57
2017-12-16T02:10:52.321Z,10.23
2017-12-16T02:13:20.567Z,8.70
2017-12-16T02:15:48.001Z,8.73
2017-12-16T02:18:15.492Z,9.20
2017-12-16T02:20:42.935Z,8.60
2017-12-16T02:23:10.374Z,8.80
2017-12-16T02:25:37.828Z,9.32
2017-12-16T02:28:05.250Z,7.83
2017-12-16T02:30:33.460Z,7.77
2017-12-16T02:33:00.892Z,8.93
2017-12-16T02:35:28.342Z,9.32
2017-12-16T02:37:56.547Z,8.17
2017-12-16T02:40:24.018Z,8.48
2017-12-16T02:42:51.470Z,7.67
2017-12-16T02:45:18.916Z,8.90
2017-12-16T02:47:46.363Z,8.20
2017-12-16T02:50:13.806Z,8.05
2017-12-16T02:52:41.250Z,7.67
2017-12-16T02:55:09.445Z,8.27
2017-12-16T02:57:36.881Z,8.67
2017-12-16T03:00:05.068Z,7.73
2017-12-16T03:02:32.535Z,8.80
2017-12-16T03:04:59.971Z,8.00
2017-12-16T03:07:28.173Z,8.50
2017-12-16T03:09:55.618Z,9.23
2017-12-16T03:12:23.054Z,8.03
2017-12-16T03:14:51.269Z,8.30
2017-12-16T03:17:18.708Z,8.50
2017-12-16T03:19:46.157Z,8.20
2017-12-16T03:22:13.603Z,8.18
2017-12-16T03:24:41.055Z,8.33
2017-12-16T03:27:09.258Z,8.20
2017-12-16T03:29:36.694Z,8.50
2017-12-16T03:32:04.915Z,8.17
2017-12-16T03:34:32.361Z,7.83
2017-12-16T03:36:59.811Z,7.57
2017-12-16T03:39:27.253Z,8.18
2017-12-16T03:41:54.695Z,7.97
2017-12-16T03:44:22.897Z,8.00
2017-12-16T03:46:50.371Z,8.73
2017-12-16T03:49:17.810Z,8.60
2017-12-16T03:51:45.249Z,8.32
2017-12-16T03:54:12.705Z,9.05
2017-12-16T03:56:40.914Z,8.43
2017-12-16T03:59:08.377Z,7.95
2017-12-16T04:01:35.801Z,9.30
2017-12-16T04:04:03.289Z,8.03
2017-12-16T04:06:30.729Z,8.95
2017-12-16T04:08:58.171Z,7.75
2017-12-16T04:11:25.621Z,8.17
2017-12-16T04:13:53.062Z,8.15
2017-12-16T04:16:20.517Z,7.73
2017-12-16T04:18:47.954Z,8.50
2017-12-16T04:21:15.418Z,7.70
2017-12-16T04:23:42.858Z,8.63
2017-12-16T04:26:10.323Z,8.32
2017-12-16T04:28:37.774Z,10.40
2017-12-16T04:31:05.210Z,8.20
2017-12-16T04:33:32.653Z,9.70
2017-12-16T04:36:00.083Z,9.20
2017-12-16T04:38:28.323Z,8.77
2017-12-16T04:40:55.761Z,9.80
2017-12-16T04:43:23.208Z,8.63
2017-12-16T04:45:50.642Z,8.73
2017-12-16T04:48:18.079Z,8.70
2017-12-16T04:50:46.330Z,8.27
2017-12-16T04:53:13.748Z,9.20
2017-12-16T04:55:41.181Z,9.30
2017-12-16T04:58:08.619Z,10.43
2017-12-16T05:00:36.832Z,8.57
2017-12-16T05:03:04.262Z,9.53
2017-12-16T05:05:32.477Z,10.20
2017-12-16T05:07:59.917Z,10.23
2017-12-16T05:10:27.358Z,8.80
2017-12-16T05:12:54.810Z,9.23
2017-12-16T05:15:23.027Z,8.83
2017-12-16T05:17:50.467Z,7.90
2017-12-16T05:20:17.906Z,9.60
2017-12-16T05:22:46.114Z,9.23
2017-12-16T05:25:13.546Z,8.37
2017-12-16T05:27:40.996Z,7.97
2017-12-16T05:30:08.431Z,8.67
2017-12-16T05:32:35.852Z,8.63
2017-12-16T05:35:03.300Z,8.00
2017-12-16T05:37:30.724Z,8.73
2017-12-16T05:39:58.174Z,8.60
2017-12-16T05:42:25.614Z,9.70
2017-12-16T05:44:53.102Z,8.10
2017-12-16T05:47:20.543Z,8.97
2017-12-16T05:49:48.750Z,7.43
2017-12-16T05:52:16.211Z,7.97
2017-12-16T05:54:43.640Z,8.60
2017-12-16T05:57:11.099Z,8.07
2017-12-16T05:59:38.543Z,8.20
2017-12-16T06:02:06.765Z,6.83
2017-12-16T06:04:34.202Z,8.27
2017-12-16T06:07:01.640Z,8.60
2017-12-16T06:09:29.073Z,8.40
2017-12-16T06:11:57.288Z,8.20
2017-12-16T06:14:24.717Z,7.80
2017-12-16T06:16:52.942Z,8.20
2017-12-16T06:19:20.493Z,7.47
2017-12-16T06:21:47.970Z,7.65
2017-12-16T06:24:15.413Z,8.27
2017-12-16T06:26:42.845Z,7.77
2017-12-16T06:29:10.286Z,6.90
2017-12-16T06:31:38.482Z,7.63
2017-12-16T06:34:05.941Z,8.20
2017-12-16T06:36:33.378Z,7.77
2017-12-16T06:39:00.826Z,8.68
2017-12-16T06:41:29.026Z,7.47
2017-12-16T06:43:56.518Z,9.00
2017-12-16T06:46:23.967Z,7.87
2017-12-16T06:48:51.418Z,7.62
2017-12-16T06:51:18.870Z,8.63
2017-12-16T06:53:46.307Z,8.60
2017-12-16T06:56:13.746Z,9.00
2017-12-16T06:58:41.954Z,11.27
2017-12-16T07:01:09.415Z,12.80
2017-12-16T07:03:36.832Z,11.70
2017-12-16T07:06:05.098Z,12.10
2017-12-16T07:08:32.551Z,12.60
2017-12-16T07:10:59.986Z,12.27
2017-12-16T07:13:27.439Z,11.87
2017-12-16T07:15:54.892Z,13.18
2017-12-16T07:18:22.347Z,14.13
2017-12-16T07:20:49.797Z,13.57
2017-12-16T07:23:17.256Z,16.50
2017-12-16T07:25:44.699Z,16.67
2017-12-16T07:28:12.155Z,17.53
2017-12-16T07:30:39.581Z,16.43
2017-12-16T07:33:07.029Z,18.23
2017-12-16T07:35:35.239Z,19.60
2017-12-16T07:38:02.702Z,19.70
2017-12-16T07:40:30.138Z,17.10
2017-12-16T07:42:57.591Z,19.13
2017-12-16T07:45:25.034Z,18.00
2017-12-16T07:47:53.241Z,19.10
2017-12-16T07:50:20.674Z,19.10
2017-12-16T07:52:48.104Z,17.77
2017-12-16T07:55:15.548Z,16.77
2017-12-16T07:57:42.995Z,18.70
2017-12-16T08:00:10.443Z,18.60
2017-12-16T08:02:37.890Z,17.67
2017-12-16T08:05:05.338Z,15.93
2017-12-16T08:07:32.778Z,17.30
2017-12-16T08:10:00.234Z,15.67
2017-12-16T08:12:27.675Z,17.50
2017-12-16T08:14:55.901Z,17.37
2017-12-16T08:17:23.347Z,15.87
2017-12-16T08:19:50.798Z,15.40
2017-12-16T08:22:18.234Z,17.90
2017-12-16T08:24:46.439Z,18.90
2017-12-16T08:27:13.878Z,18.60
2017-12-16T08:29:41.326Z,19.13
2017-12-16T08:32:08.767Z,18.23
2017-12-16T08:34:36.974Z,19.40
2017-12-16T08:37:04.402Z,18.40
2017-12-16T08:39:32.622Z,19.03
2017-12-16T08:42:00.084Z,17.90
2017-12-16T08:44:27.534Z,19.30
2017-12-16T08:46:54.970Z,17.60
2017-12-16T08:49:22.410Z,18.60
2017-12-16T08:51:50.605Z,18.30
2017-12-16T08:54:18.058Z,17.70
2017-12-16T08:56:45.499Z,19.33
2017-12-16T08:59:13.716Z,17.57
2017-12-16T09:01:41.155Z,18.87
2017-12-16T09:04:08.586Z,16.70
2017-12-16T09:06:36.787Z,18.90
2017-12-16T09:09:04.234Z,18.10
2017-12-16T09:11:31.678Z,16.37
2017-12-16T09:13:59.150Z,17.37
2017-12-16T09:16:26.586Z,19.80
2017-12-16T09:18:54.792Z,19.43
2017-12-16T09:21:22.246Z,19.07
2017-12-16T09:23:49.682Z,19.77
2017-12-16T09:26:17.890Z,23.03
2017-12-16T09:28:45.358Z,21.92
2017-12-16T09:31:12.792Z,22.17
2017-12-16T09:33:40.226Z,19.70
2017-12-16T09:36:07.686Z,21.40
2017-12-16T09:38:35.132Z,19.20
2017-12-16T09:41:03.370Z,21.40
2017-12-16T09:43:30.874Z,19.90
2017-12-16T09:45:59.189Z,20.80
2017-12-16T09:48:26.631Z,21.40
2017-12-16T09:50:54.083Z,19.53
2017-12-16T09:53:21.523Z,19.50
2017-12-16T09:55:49.742Z,19.97
2017-12-16T09:58:17.192Z,19.87
2017-12-16T10:00:44.639Z,16.90
2017-12-16T10:03:12.075Z,20.73
2017-12-16T10:05:39.661Z,19.23
2017-12-16T10:08:07.078Z,20.37
2017-12-16T10:10:35.294Z,17.90
2017-12-16T10:13:02.751Z,17.97
2017-12-16T10:15:30.202Z,17.83
2017-12-16T10:17:57.639Z,19.13
2017-12-16T10:20:25.086Z,17.77
2017-12-16T10:22:53.300Z,18.87
2017-12-16T10:25:20.753Z,18.00
2017-12-16T10:27:48.222Z,17.63
2017-12-16T10:30:15.669Z,16.67
2017-12-16T10:32:43.101Z,16.87
2017-12-16T10:35:10.595Z,18.47
2017-12-16T10:37:38.019Z,19.00
2017-12-16T10:40:05.458Z,17.67
2017-12-16T10:42:33.679Z,16.40
2017-12-16T10:45:01.122Z,17.87
2017-12-16T10:47:28.571Z,17.77
2017-12-16T10:49:56.010Z,17.90
2017-12-16T10:52:24.214Z,16.80
2017-12-16T10:54:51.650Z,15.97
2017-12-16T10:57:19.098Z,15.17
2017-12-16T10:59:46.556Z,13.77
2017-12-16T11:02:14.011Z,14.30
2017-12-16T11:04:42.206Z,14.97
2017-12-16T11:07:09.659Z,12.80
2017-12-16T11:09:37.094Z,12.20
2017-12-16T11:12:05.334Z,13.23
2017-12-16T11:14:32.768Z,13.63
2017-12-16T11:17:00.216Z,16.00
2017-12-16T11:19:27.646Z,11.23
2017-12-16T11:21:55.867Z,11.70
2017-12-16T11:24:23.310Z,12.00
2017-12-16T11:26:50.762Z,10.67
2017-12-16T11:29:18.201Z,10.70
2017-12-16T11:31:45.645Z,12.43
2017-12-16T11:34:13.866Z,11.20
2017-12-16T11:36:41.321Z,11.60
2017-12-16T11:39:08.762Z,11.20
2017-12-16T11:41:36.211Z,10.90
2017-12-16T11:44:03.646Z,8.77
2017-12-16T11:46:31.866Z,10.10
2017-12-16T11:48:59.320Z,8.73
2017-12-16T11:51:26.750Z,7.50
2017-12-16T11:53:54.184Z,8.17
2017-12-16T11:56:22.393Z,7.87
2017-12-16T11:58:49.834Z,7.90
2017-12-16T12:01:17.310Z,9.30
2017-12-16T12:03:44.754Z,8.90
2017-12-16T12:06:12.948Z,9.07
2017-12-16T12:08:40.407Z,8.47
2017-12-16T12:11:07.843Z,9.00
2017-12-16T12:13:35.291Z,10.03
2017-12-16T12:16:03.499Z,9.87
2017-12-16T12:18:30.956Z,8.43
2017-12-16T12:20:58.405Z,9.20
2017-12-16T12:23:25.846Z,8.40
2017-12-16T12:25:53.288Z,8.50
2017-12-16T12:28:21.506Z,6.20
2017-12-16T12:30:48.955Z,7.80
2017-12-16T12:33:16.383Z,5.57
2017-12-16T12:35:43.824Z,6.13
2017-12-16T12:38:12.054Z,5.23
2017-12-16T12:40:39.475Z,5.10
2017-12-16T12:43:06.953Z,5.40
2017-12-16T12:45:35.115Z,5.13
2017-12-16T12:48:02.574Z,4.80
2017-12-16T12:50:30.013Z,4.60
2017-12-16T12:52:58.225Z,4.90
2017-12-16T12:55:25.674Z,4.60
2017-12-16T12:57:53.128Z,3.87
2017-12-16T13:00:20.567Z,4.73
2017-12-16T13:02:48.015Z,5.60
2017-12-16T13:05:16.229Z,3.93
2017-12-16T13:07:43.695Z,4.33
2017-12-16T13:10:11.123Z,5.00
2017-12-16T13:12:38.569Z,4.70
2017-12-16T13:15:06.770Z,5.07
2017-12-16T13:17:34.222Z,4.53
2017-12-16T13:20:01.667Z,5.07
2017-12-16T13:22:29.861Z,4.67
2017-12-16T13:24:57.286Z,4.93
2017-12-16T13:27:24.718Z,5.00
2017-12-16T13:29:52.158Z,4.80
2017-12-16T13:32:19.584Z,3.97
2017-12-16T13:34:47.101Z,5.27
2017-12-16T13:37:14.466Z,4.57
2017-12-16T13:39:42.687Z,4.57
2017-12-16T13:42:10.118Z,5.03
2017-12-16T13:44:37.602Z,3.50
2017-12-16T13:47:05.064Z,4.23
2017-12-16T13:49:32.497Z,3.20
2017-12-16T13:51:59.927Z,4.77
2017-12-16T13:54:28.165Z,3.50
2017-12-16T13:56:55.601Z,3.50
2017-12-16T13:59:23.050Z,4.27
2017-12-16T14:01:50.495Z,4.60
2017-12-16T14:04:17.971Z,4.00
2017-12-16T14:06:45.422Z,3.57
2017-12-16T14:09:12.862Z,3.80
2017-12-16T14:11:40.295Z,5.90
2017-12-16T14:14:08.527Z,5.40
2017-12-16T14:16:35.967Z,3.97
2017-12-16T14:19:03.421Z,4.30
2017-12-16T14:21:30.854Z,4.50
2017-12-16T14:23:58.297Z,4.90
2017-12-16T14:26:26.532Z,4.90
2017-12-16T14:28:54.747Z,4.97
2017-12-16T14:31:22.956Z,4.67
2017-12-16T14:33:50.393Z,4.63
2017-12-16T14:36:17.821Z,4.60
2017-12-16T14:38:45.279Z,5.33
2017-12-16T14:41:12.710Z,4.47
2017-12-16T14:43:40.149Z,4.83
2017-12-16T14:46:07.603Z,4.40
2017-12-16T14:48:35.062Z,8.73
2017-12-16T14:51:02.494Z,4.23
2017-12-16T14:53:29.934Z,4.80
2017-12-16T14:55:58.134Z,4.87
2017-12-16T14:58:25.611Z,4.20
2017-12-16T15:00:53.038Z,4.47
2017-12-16T15:03:20.491Z,3.70
2017-12-16T15:05:47.946Z,4.67
2017-12-16T15:08:15.378Z,3.40
2017-12-16T15:10:42.825Z,3.80
2017-12-16T15:13:10.262Z,3.40
2017-12-16T15:15:37.714Z,5.27
2017-12-16T15:18:05.155Z,3.37
2017-12-16T15:20:32.608Z,3.27
2017-12-16T15:23:00.038Z,3.43
2017-12-16T15:25:28.250Z,3.40
2017-12-16T15:27:55.691Z,3.43
2017-12-16T15:30:23.134Z,2.87
2017-12-16T15:32:50.570Z,2.87
2017-12-16T15:35:18.015Z,2.70
2017-12-16T15:37:45.451Z,3.43
2017-12-16T15:40:12.887Z,2.83
2017-12-16T15:42:40.329Z,3.23
2017-12-16T15:45:07.767Z,2.80
2017-12-16T15:47:35.977Z,3.23
2017-12-16T15:50:03.413Z,3.03
2017-12-16T15:52:30.841Z,3.30
2017-12-16T15:54:59.051Z,3.00
2017-12-16T15:57:26.477Z,3.30
2017-12-16T15:59:54.699Z,3.60
2017-12-16T16:02:22.132Z,3.23
2017-12-16T16:04:49.570Z,3.57
2017-12-16T16:07:17.774Z,3.30
2017-12-16T16:09:46.048Z,3.73
2017-12-16T16:12:13.481Z,3.37
2017-12-16T16:14:41.665Z,4.17
2017-12-16T16:17:09.101Z,4.40
2017-12-16T16:19:37.303Z,4.67
2017-12-16T16:22:04.746Z,4.57
2017-12-16T16:24:32.957Z,4.67
2017-12-16T16:27:00.452Z,3.50
2017-12-16T16:29:27.878Z,4.10
2017-12-16T16:31:55.335Z,4.13
2017-12-16T16:34:22.775Z,3.97
2017-12-16T16:36:50.218Z,4.53
2017-12-16T16:39:17.650Z,4.07
2017-12-16T16:41:45.857Z,3.70
2017-12-16T16:44:13.333Z,4.43
2017-12-16T16:46:40.775Z,4.70
2017-12-16T16:49:08.202Z,4.23
2017-12-16T16:51:36.418Z,4.33
2017-12-16T16:54:03.858Z,4.47
2017-12-16T16:56:31.302Z,4.60
2017-12-16T16:58:58.745Z,4.57
2017-12-16T17:01:26.953Z,3.87
2017-12-16T17:03:54.374Z,3.23
2017-12-16T17:06:22.600Z,2.90
2017-12-16T17:08:50.030Z,2.60
2017-12-16T17:11:17.474Z,1.90
2017-12-16T17:13:45.681Z,1.73
2017-12-16T17:16:13.109Z,1.87
2017-12-16T17:18:40.545Z,2.33
2017-12-16T17:21:07.986Z,2.30
2017-12-16T17:23:35.422Z,2.23
2017-12-16T17:26:02.871Z,2.70
2017-12-16T17:28:30.304Z,2.17
2017-12-16T17:30:57.749Z,2.30
2017-12-16T17:33:25.942Z,2.03
2017-12-16T17:35:53.441Z,2.77
2017-12-16T17:38:20.878Z,2.23
2017-12-16T17:40:48.335Z,3.08
2017-12-16T17:43:15.771Z,2.70
2017-12-16T17:45:43.203Z,4.00
2017-12-16T17:48:11.418Z,3.77
2017-12-16T17:50:38.854Z,6.27
2017-12-16T17:53:06.303Z,10.97
2017-12-16T17:55:34.493Z,6.23
2017-12-16T17:58:01.938Z,6.90
2017-12-16T18:00:29.373Z,6.87
2017-12-16T18:02:57.580Z,11.70
2017-12-16T18:05:25.034Z,8.20
2017-12-16T18:07:52.473Z,5.00
2017-12-16T18:10:20.680Z,4.40
2017-12-16T18:12:48.123Z,5.40
2017-12-16T18:15:15.558Z,5.33
2017-12-16T18:17:43.771Z,4.67
2017-12-16T18:20:11.239Z,4.60
2017-12-16T18:22:38.681Z,5.20
2017-12-16T18:25:06.106Z,5.00
2017-12-16T18:27:33.577Z,4.77
2017-12-16T18:30:01.755Z,4.17
2017-12-16T18:32:29.194Z,3.90
2017-12-16T18:34:57.385Z,4.67
2017-12-16T18:37:24.819Z,5.13
2017-12-16T18:39:53.026Z,4.63
2017-12-16T18:42:20.470Z,5.00
2017-12-16T18:44:47.906Z,5.50
2017-12-16T18:47:16.110Z,4.40
2017-12-16T18:49:43.556Z,5.70
2017-12-16T18:52:11.755Z,5.20
2017-12-16T18:54:39.191Z,5.70
2017-12-16T18:57:06.635Z,6.43
2017-12-16T18:59:34.947Z,5.80
2017-12-16T19:02:02.407Z,5.67
2017-12-16T19:04:29.841Z,5.30
2017-12-16T19:06:57.269Z,5.10
2017-12-16T19:09:24.700Z,6.70
2017-12-16T19:11:52.130Z,5.87
2017-12-16T19:14:19.573Z,6.50
2017-12-16T19:16:47.002Z,6.13
2017-12-16T19:19:15.257Z,6.40
2017-12-16T19:21:42.692Z,6.37
2017-12-16T19:24:10.146Z,6.57
2017-12-16T19:26:37.576Z,6.03
2017-12-16T19:29:05.012Z,5.68
2017-12-16T19:31:33.221Z,6.23
2017-12-16T19:34:00.674Z,8.37
2017-12-16T19:36:28.105Z,5.90
2017-12-16T19:38:56.314Z,6.20
2017-12-16T19:41:23.763Z,6.10
2017-12-16T19:43:51.210Z,6.23
2017-12-16T19:46:18.645Z,6.70
2017-12-16T19:48:46.859Z,6.13
2017-12-16T19:51:14.294Z,7.33
2017-12-16T19:53:41.729Z,6.03
2017-12-16T19:56:09.940Z,7.17
2017-12-16T19:58:37.387Z,8.33
2017-12-16T20:01:04.831Z,8.60
2017-12-16T20:03:32.281Z,8.23
2017-12-16T20:06:00.485Z,6.57
2017-12-16T20:08:27.935Z,6.53
2017-12-16T20:10:55.352Z,6.50
2017-12-16T20:13:23.563Z,6.37
2017-12-16T20:15:50.994Z,5.60
2017-12-16T20:18:19.240Z,7.10
2017-12-16T20:20:46.634Z,5.62
2017-12-16T20:23:14.874Z,6.40
2017-12-16T20:25:42.296Z,5.93
2017-12-16T20:28:09.730Z,6.30
2017-12-16T20:30:37.203Z,6.13
2017-12-16T20:33:04.619Z,6.17
2017-12-16T20:35:32.047Z,6.27
2017-12-16T20:37:59.529Z,5.50
2017-12-16T20:40:26.938Z,5.53
2017-12-16T20:42:54.383Z,5.80
2017-12-16T20:45:21.818Z,4.93
2017-12-16T20:47:50.022Z,6.00
2017-12-16T20:50:17.454Z,6.10
2017-12-16T20:52:44.894Z,6.20
2017-12-16T20:55:12.330Z,6.20
2017-12-16T20:57:39.771Z,5.37
2017-12-16T21:00:07.219Z,6.20
2017-12-16T21:02:34.666Z,5.87
2017-12-16T21:05:02.112Z,7.17
2017-12-16T21:07:29.547Z,5.73
2017-12-16T21:09:57.755Z,5.93
2017-12-16T21:12:25.198Z,6.77
2017-12-16T21:14:52.646Z,5.30
2017-12-16T21:17:20.078Z,5.37
2017-12-16T21:19:48.292Z,5.27
2017-12-16T21:22:15.717Z,5.57
2017-12-16T21:24:43.934Z,5.57
2017-12-16T21:27:11.354Z,5.40
2017-12-16T21:29:39.564Z,4.95
2017-12-16T21:32:07.007Z,5.30
2017-12-16T21:34:34.447Z,4.78
2017-12-16T21:37:01.895Z,4.40
2017-12-16T21:39:30.116Z,5.28
2017-12-16T21:41:58.318Z,4.97
2017-12-16T21:44:25.775Z,5.20
2017-12-16T21:46:53.197Z,4.90
2017-12-16T21:49:20.652Z,5.40
2017-12-16T21:51:48.074Z,7.07
2017-12-16T21:54:16.287Z,7.35
2017-12-16T21:56:43.740Z,7.03
2017-12-16T21:59:11.177Z,7.97
2017-12-16T22:01:38.609Z,6.60
2017-12-16T22:04:06.052Z,6.80
2017-12-16T22:06:33.482Z,6.60
2017-12-16T22:09:00.933Z,7.40
2017-12-16T22:11:28.374Z,6.50
2017-12-16T22:13:55.801Z,7.03
2017-12-16T22:16:24.019Z,6.70
2017-12-16T22:18:51.453Z,7.10
2017-12-16T22:21:18.906Z,6.67
2017-12-16T22:23:46.346Z,7.73
2017-12-16T22:26:13.781Z,7.60
2017-12-16T22:28:41.218Z,6.00
2017-12-16T22:31:08.679Z,8.00
2017-12-16T22:33:36.123Z,6.15
2017-12-16T22:36:03.557Z,7.40
2017-12-16T22:38:31.003Z,7.60
2017-12-16T22:40:58.455Z,6.90
2017-12-16T22:43:25.890Z,7.10
2017-12-16T22:45:53.345Z,7.43
2017-12-16T22:48:20.775Z,7.00
2017-12-16T22:50:48.222Z,8.27
2017-12-16T22:53:15.664Z,8.03
2017-12-16T22:55:43.123Z,7.43
2017-12-16T22:58:10.563Z,8.98
2017-12-16T23:00:38.010Z,9.53
2017-12-16T23:03:06.215Z,7.87
2017-12-16T23:05:33.660Z,8.83
2017-12-16T23:08:01.103Z,9.20
2017-12-16T23:10:28.556Z,9.00
2017-12-16T23:12:55.995Z,8.43
2017-12-16T23:15:24.335Z,8.17
2017-12-16T23:17:51.784Z,7.80
2017-12-16T23:20:19.230Z,8.60
2017-12-16T23:22:46.688Z,9.53
2017-12-16T23:25:14.101Z,8.90
2017-12-16T23:27:42.320Z,9.10
2017-12-16T23:30:09.755Z,8.83
2017-12-16T23:32:37.207Z,11.05
2017-12-16T23:35:05.416Z,6.93
2017-12-16T23:37:32.864Z,7.67
2017-12-16T23:40:00.302Z,8.02
2017-12-16T23:42:27.762Z,9.47
2017-12-16T23:44:55.206Z,9.25
2017-12-16T23:47:22.659Z,9.48
2017-12-16T23:49:50.862Z,8.20
2017-12-16T23:52:18.306Z,9.35
2017-12-16T23:54:45.753Z,8.60
2017-12-16T23:57:13.962Z,7.70
2017-12-16T23:59:41.416Z,8.43
